createdAt,value
2017-11-18T00:00:04.405Z,83.70
2017-11-18T00:02:30.596Z,83.70
2017-11-18T00:04:57.613Z,84.40
2017-11-18T00:07:24.559Z,84.80
2017-11-18T00:09:51.551Z,84.40
2017-11-18T00:12:17.765Z,84.40
2017-11-18T00:14:44.684Z,84.00
2017-11-18T00:17:11.586Z,84.30
2017-11-18T00:19:37.848Z,84.30
2017-11-18T00:22:04.061Z,84.20
2017-11-18T00:24:30.348Z,84.40
2017-11-18T00:26:56.568Z,84.50
2017-11-18T00:29:23.524Z,84.40
2017-11-18T00:31:49.753Z,84.30
2017-11-18T00:34:15.946Z,84.90
2017-11-18T00:36:42.212Z,85.00
2017-11-18T00:39:08.429Z,85.10
2017-11-18T00:41:35.382Z,84.90
2017-11-18T00:44:01.617Z,84.90
2017-11-18T00:46:27.808Z,84.80
2017-11-18T00:48:54.056Z,84.70
2017-11-18T00:51:20.289Z,84.40
2017-11-18T00:53:47.224Z,84.30
2017-11-18T00:56:14.227Z,83.70
2017-11-18T00:58:40.498Z,83.60
2017-11-18T01:01:07.461Z,83.80
2017-11-18T01:03:33.689Z,83.80
2017-11-18T01:05:59.914Z,84.80
2017-11-18T01:08:26.188Z,84.10
2017-11-18T01:10:52.429Z,84.70
2017-11-18T01:13:18.619Z,85.10
2017-11-18T01:15:44.789Z,84.70
2017-11-18T01:18:11.013Z,84.40
2017-11-18T01:20:37.280Z,84.40
2017-11-18T01:23:04.178Z,84.10
2017-11-18T01:25:30.356Z,84.10
2017-11-18T01:27:57.309Z,84.60
2017-11-18T01:30:23.529Z,84.60
2017-11-18T01:32:50.498Z,85.20
2017-11-18T01:35:16.724Z,85.20
2017-11-18T01:37:42.950Z,84.80
2017-11-18T01:40:09.273Z,84.30
2017-11-18T01:42:35.434Z,85.10
2017-11-18T01:45:01.690Z,85.10
2017-11-18T01:47:28.680Z,86.00
2017-11-18T01:49:54.865Z,85.20
2017-11-18T01:52:21.085Z,84.50
2017-11-18T01:54:48.048Z,84.40
2017-11-18T01:57:15.105Z,85.00
2017-11-18T01:59:42.049Z,84.90
2017-11-18T02:02:09.068Z,84.70
2017-11-18T02:04:36.024Z,85.20
2017-11-18T02:07:02.967Z,84.30
2017-11-18T02:09:29.208Z,84.40
2017-11-18T02:11:56.159Z,85.60
2017-11-18T02:14:23.144Z,84.60
2017-11-18T02:16:49.418Z,84.60
2017-11-18T02:19:16.400Z,85.30
2017-11-18T02:21:42.719Z,85.40
2017-11-18T02:24:09.053Z,85.20
2017-11-18T02:26:35.356Z,85.10
2017-11-18T02:29:02.329Z,84.40
2017-11-18T02:31:29.347Z,84.70
2017-11-18T02:33:56.371Z,84.80
2017-11-18T02:36:22.637Z,84.80
2017-11-18T02:38:49.612Z,84.30
2017-11-18T02:41:15.921Z,84.30
2017-11-18T02:43:42.897Z,84.60
2017-11-18T02:46:09.208Z,84.50
2017-11-18T02:48:35.397Z,84.20
2017-11-18T02:51:01.612Z,84.20
2017-11-18T02:53:27.845Z,84.20
2017-11-18T02:55:54.083Z,83.50
2017-11-18T02:58:21.095Z,84.20
2017-11-18T03:00:47.318Z,84.30
2017-11-18T03:03:13.576Z,84.20
2017-11-18T03:05:39.815Z,84.30
2017-11-18T03:08:06.082Z,84.60
2017-11-18T03:10:32.297Z,84.60
2017-11-18T03:12:59.239Z,85.20
2017-11-18T03:15:26.185Z,84.90
2017-11-18T03:17:53.140Z,85.50
2017-11-18T03:20:19.442Z,85.50
2017-11-18T03:22:45.744Z,84.80
2017-11-18T03:25:11.992Z,86.20
2017-11-18T03:27:38.985Z,85.30
2017-11-18T03:30:05.269Z,85.30
2017-11-18T03:32:32.255Z,84.90
2017-11-18T03:34:58.440Z,84.90
2017-11-18T03:37:24.650Z,85.50
2017-11-18T03:39:50.880Z,84.90
2017-11-18T03:42:17.200Z,85.80
2017-11-18T03:44:43.425Z,85.10
2017-11-18T03:47:09.658Z,85.30
2017-11-18T03:49:35.961Z,85.10
2017-11-18T03:52:02.251Z,84.90
2017-11-18T03:54:28.509Z,84.90
2017-11-18T03:56:55.510Z,84.90
2017-11-18T03:59:21.813Z,85.00
2017-11-18T04:01:48.091Z,84.10
2017-11-18T04:04:15.034Z,84.40
2017-11-18T04:06:42.013Z,83.90
2017-11-18T04:09:08.277Z,83.90
2017-11-18T04:11:34.523Z,84.20
2017-11-18T04:14:01.530Z,84.30
2017-11-18T04:16:27.824Z,84.30
2017-11-18T04:18:54.786Z,84.10
2017-11-18T04:21:21.059Z,84.10
2017-11-18T04:23:47.315Z,84.10
2017-11-18T04:26:13.556Z,83.90
2017-11-18T04:28:40.541Z,83.60
2017-11-18T04:31:06.789Z,83.60
2017-11-18T04:33:33.000Z,83.40
2017-11-18T04:35:59.296Z,84.10
2017-11-18T04:38:26.281Z,84.00
2017-11-18T04:40:52.536Z,84.00
2017-11-18T04:43:18.730Z,84.50
2017-11-18T04:45:45.008Z,84.50
2017-11-18T04:48:11.948Z,84.10
2017-11-18T04:50:38.203Z,84.20
2017-11-18T04:53:05.197Z,83.30
2017-11-18T04:55:31.456Z,83.30
2017-11-18T04:57:57.684Z,84.20
2017-11-18T05:00:24.675Z,83.90
2017-11-18T05:02:50.876Z,84.00
2017-11-18T05:05:17.844Z,83.40
2017-11-18T05:07:44.091Z,83.40
2017-11-18T05:10:10.365Z,83.80
2017-11-18T05:12:36.568Z,83.90
2017-11-18T05:15:02.794Z,83.80
2017-11-18T05:17:29.087Z,83.70
2017-11-18T05:19:55.385Z,84.10
2017-11-18T05:22:21.627Z,83.60
2017-11-18T05:24:48.556Z,84.00
2017-11-18T05:27:14.851Z,84.10
2017-11-18T05:29:41.109Z,83.00
2017-11-18T05:32:07.269Z,83.70
2017-11-18T05:34:34.224Z,83.90
2017-11-18T05:37:00.505Z,83.90
2017-11-18T05:39:27.472Z,84.20
2017-11-18T05:41:54.460Z,83.50
2017-11-18T05:44:20.680Z,83.40
2017-11-18T05:46:46.862Z,83.30
2017-11-18T05:49:13.109Z,83.70
2017-11-18T05:51:40.103Z,83.90
2017-11-18T05:54:06.325Z,83.90
2017-11-18T05:56:32.592Z,83.10
2017-11-18T05:58:59.569Z,83.70
2017-11-18T06:01:25.881Z,83.70
2017-11-18T06:03:52.895Z,83.70
2017-11-18T06:06:19.086Z,83.70
2017-11-18T06:08:46.218Z,83.90
2017-11-18T06:11:12.505Z,84.30
2017-11-18T06:13:38.792Z,84.20
2017-11-18T06:16:05.072Z,84.70
2017-11-18T06:18:32.090Z,84.90
2017-11-18T06:20:58.654Z,84.90
2017-11-18T06:23:25.636Z,85.30
2017-11-18T06:25:52.624Z,85.10
2017-11-18T06:28:18.908Z,85.10
2017-11-18T06:30:45.930Z,85.60
2017-11-18T06:33:12.877Z,85.60
2017-11-18T06:35:39.794Z,85.10
2017-11-18T06:38:06.027Z,85.10
2017-11-18T06:40:32.251Z,84.50
2017-11-18T06:42:58.464Z,84.70
2017-11-18T06:45:24.663Z,84.40
2017-11-18T06:47:51.636Z,83.90
2017-11-18T06:50:17.888Z,83.90
2017-11-18T06:52:44.114Z,83.80
2017-11-18T06:55:10.343Z,84.40
2017-11-18T06:57:36.582Z,84.20
2017-11-18T07:00:02.781Z,84.10
2017-11-18T07:02:29.017Z,84.00
2017-11-18T07:04:55.210Z,84.50
2017-11-18T07:07:22.137Z,84.60
2017-11-18T07:09:49.089Z,84.40
2017-11-18T07:12:16.026Z,84.30
2017-11-18T07:14:42.938Z,84.40
2017-11-18T07:17:09.157Z,84.70
2017-11-18T07:19:35.332Z,85.70
2017-11-18T07:22:02.273Z,84.20
2017-11-18T07:24:29.244Z,85.30
2017-11-18T07:26:55.481Z,85.30
2017-11-18T07:29:21.678Z,84.70
2017-11-18T07:31:48.605Z,84.50
2017-11-18T07:34:15.516Z,85.30
2017-11-18T07:36:41.735Z,85.40
2017-11-18T07:39:07.881Z,85.50
2017-11-18T07:41:34.086Z,83.40
2017-11-18T07:44:00.346Z,83.80
2017-11-18T07:46:26.628Z,83.10
2017-11-18T07:48:52.881Z,83.20
2017-11-18T07:51:19.189Z,82.80
2017-11-18T07:53:45.348Z,84.00
2017-11-18T07:56:11.586Z,84.30
2017-11-18T07:58:37.784Z,83.90
2017-11-18T08:01:03.998Z,83.30
2017-11-18T08:03:30.163Z,83.50
2017-11-18T08:05:56.387Z,83.30
2017-11-18T08:08:22.577Z,82.40
2017-11-18T08:10:48.797Z,83.20
2017-11-18T08:13:15.777Z,81.40
2017-11-18T08:15:42.021Z,81.40
2017-11-18T08:18:08.206Z,80.40
2017-11-18T08:20:35.230Z,78.80
2017-11-18T08:23:02.267Z,79.70
2017-11-18T08:25:28.444Z,78.90
2017-11-18T08:27:54.676Z,78.00
2017-11-18T08:30:20.842Z,78.30
2017-11-18T08:32:47.029Z,78.00
2017-11-18T08:35:13.219Z,78.00
2017-11-18T08:37:40.208Z,76.80
2017-11-18T08:40:06.499Z,75.90
2017-11-18T08:42:33.432Z,76.20
2017-11-18T08:44:59.648Z,76.20
2017-11-18T08:47:25.853Z,74.80
2017-11-18T08:49:52.082Z,74.40
2017-11-18T08:52:18.326Z,75.00
2017-11-18T08:54:44.557Z,73.90
2017-11-18T08:57:10.810Z,74.00
2017-11-18T08:59:37.777Z,72.30
2017-11-18T09:02:04.070Z,72.20
2017-11-18T09:04:30.326Z,72.40
2017-11-18T09:06:57.289Z,72.60
2017-11-18T09:09:23.472Z,72.60
2017-11-18T09:11:50.492Z,72.30
2017-11-18T09:14:16.754Z,72.30
2017-11-18T09:16:43.000Z,72.40
2017-11-18T09:19:11.860Z,72.20
2017-11-18T09:21:38.869Z,72.10
2017-11-18T09:24:05.077Z,72.20
2017-11-18T09:26:32.370Z,72.30
2017-11-18T09:28:58.641Z,72.30
2017-11-18T09:31:25.618Z,72.30
2017-11-18T09:33:51.854Z,72.20
2017-11-18T09:36:18.141Z,72.90
2017-11-18T09:38:45.071Z,73.00
2017-11-18T09:41:11.311Z,73.00
2017-11-18T09:43:38.234Z,72.00
2017-11-18T09:46:04.409Z,72.00
2017-11-18T09:48:31.371Z,71.40
2017-11-18T09:50:57.636Z,71.40
2017-11-18T09:59:27.449Z,68.80
2017-11-18T10:01:53.643Z,68.80
2017-11-18T10:04:19.878Z,69.30
2017-11-18T10:06:46.852Z,68.80
2017-11-18T10:09:13.039Z,68.80
2017-11-18T10:11:39.203Z,69.10
2017-11-18T10:14:06.145Z,66.40
2017-11-18T10:16:32.315Z,66.40
2017-11-18T10:18:58.509Z,70.60
2017-11-18T10:21:24.691Z,69.70
2017-11-18T10:23:50.873Z,70.50
2017-11-18T10:26:17.077Z,69.20
2017-11-18T10:28:44.039Z,70.70
2017-11-18T10:31:10.238Z,70.70
2017-11-18T10:33:37.224Z,71.30
2017-11-18T10:36:03.465Z,71.20
2017-11-18T10:38:29.714Z,70.70
2017-11-18T10:40:55.892Z,71.50
2017-11-18T10:43:22.058Z,67.40
2017-11-18T10:45:48.319Z,68.40
2017-11-18T10:48:15.275Z,67.50
2017-11-18T10:50:42.254Z,66.70
2017-11-18T10:53:08.461Z,66.70
2017-11-18T10:55:34.752Z,66.90
2017-11-18T10:58:00.947Z,66.40
2017-11-18T11:00:27.119Z,65.60
2017-11-18T11:02:53.296Z,66.30
2017-11-18T11:05:19.479Z,66.10
2017-11-18T11:07:45.643Z,65.70
2017-11-18T11:10:11.840Z,64.60
2017-11-18T11:12:38.806Z,66.00
2017-11-18T11:15:05.037Z,66.00
2017-11-18T11:17:31.286Z,63.70
2017-11-18T11:19:57.477Z,64.70
2017-11-18T11:22:24.401Z,64.50
2017-11-18T11:24:50.579Z,64.50
2017-11-18T11:27:16.755Z,65.10
2017-11-18T11:29:42.959Z,65.80
2017-11-18T11:32:09.137Z,67.70
2017-11-18T11:34:36.073Z,65.20
2017-11-18T11:37:03.024Z,64.90
2017-11-18T11:39:30.007Z,66.10
2017-11-18T11:41:56.218Z,66.00
2017-11-18T11:44:22.498Z,67.40
2017-11-18T11:46:48.707Z,66.10
2017-11-18T11:49:14.985Z,67.60
2017-11-18T11:51:41.234Z,67.30
2017-11-18T11:54:22.322Z,65.50
2017-11-18T11:56:48.537Z,65.40
2017-11-18T11:59:14.711Z,65.30
2017-11-18T12:01:40.944Z,66.50
2017-11-18T12:04:07.127Z,66.70
2017-11-18T12:06:33.345Z,65.40
2017-11-18T12:08:59.556Z,64.80
2017-11-18T12:11:26.483Z,65.70
2017-11-18T12:13:53.422Z,66.40
2017-11-18T12:16:20.395Z,64.70
2017-11-18T12:18:46.657Z,64.60
2017-11-18T12:21:12.904Z,66.50
2017-11-18T12:23:39.143Z,66.80
2017-11-18T12:26:05.465Z,66.80
2017-11-18T12:28:31.689Z,67.00
2017-11-18T12:30:57.894Z,66.80
2017-11-18T12:33:24.035Z,66.10
2017-11-18T12:35:50.266Z,65.90
2017-11-18T12:38:16.490Z,66.00
2017-11-18T12:40:42.708Z,64.80
2017-11-18T12:43:08.950Z,66.50
2017-11-18T12:45:35.180Z,64.80
2017-11-18T12:48:01.383Z,64.20
2017-11-18T12:50:27.630Z,65.10
2017-11-18T12:52:53.874Z,66.00
2017-11-18T12:55:20.051Z,65.60
2017-11-18T12:57:46.986Z,65.50
2017-11-18T13:00:13.922Z,65.10
2017-11-18T13:02:40.925Z,64.60
2017-11-18T13:05:07.146Z,64.50
2017-11-18T13:07:33.286Z,64.80
2017-11-18T13:09:59.462Z,66.90
2017-11-18T13:12:26.391Z,66.60
2017-11-18T13:14:53.302Z,65.60
2017-11-18T13:17:19.434Z,65.50
2017-11-18T13:19:45.622Z,65.50
2017-11-18T13:22:11.799Z,65.10
2017-11-18T13:24:38.674Z,66.20
2017-11-18T13:27:05.629Z,64.60
2017-11-18T13:29:31.794Z,64.60
2017-11-18T13:31:57.984Z,63.50
2017-11-18T13:34:24.154Z,61.70
2017-11-18T13:36:50.390Z,60.30
2017-11-18T13:39:16.618Z,61.40
2017-11-18T13:41:43.557Z,60.40
2017-11-18T13:44:09.750Z,60.50
2017-11-18T13:46:36.050Z,61.80
2017-11-18T13:49:02.950Z,61.40
2017-11-18T13:51:29.145Z,61.40
2017-11-18T13:53:55.376Z,62.10
2017-11-18T13:56:21.610Z,61.50
2017-11-18T13:58:47.826Z,62.90
2017-11-18T14:01:14.782Z,63.40
2017-11-18T14:03:41.058Z,63.40
2017-11-18T14:06:07.227Z,62.90
2017-11-18T14:08:34.173Z,63.50
2017-11-18T14:11:00.370Z,63.40
2017-11-18T14:13:26.558Z,63.60
2017-11-18T14:15:52.824Z,63.40
2017-11-18T14:18:19.818Z,62.90
2017-11-18T14:20:46.020Z,63.00
2017-11-18T14:23:13.026Z,64.40
2017-11-18T14:25:39.235Z,64.30
2017-11-18T14:28:05.454Z,63.00
2017-11-18T14:30:31.628Z,61.30
2017-11-18T14:32:58.618Z,63.50
2017-11-18T14:35:24.849Z,63.50
2017-11-18T14:37:51.085Z,63.10
2017-11-18T14:40:17.373Z,62.80
2017-11-18T14:42:44.350Z,63.00
2017-11-18T14:45:10.561Z,63.00
2017-11-18T14:47:36.787Z,62.50
2017-11-18T14:50:03.731Z,62.10
2017-11-18T14:52:30.831Z,62.10
2017-11-18T14:54:57.145Z,62.10
2017-11-18T14:57:23.426Z,61.00
2017-11-18T14:59:50.401Z,61.70
2017-11-18T15:02:16.653Z,61.70
2017-11-18T15:04:42.888Z,62.20
2017-11-18T15:07:09.099Z,61.90
2017-11-18T15:09:35.357Z,60.70
2017-11-18T15:12:01.716Z,62.50
2017-11-18T15:14:37.659Z,62.90
2017-11-18T15:17:10.026Z,62.80
2017-11-18T15:19:42.319Z,62.80
2017-11-18T15:22:21.407Z,62.80
2017-11-18T15:24:53.782Z,62.80
2017-11-18T15:27:26.170Z,63.00
2017-11-18T15:29:59.203Z,62.50
2017-11-18T15:32:26.231Z,62.50
2017-11-18T15:34:59.395Z,62.70
2017-11-18T15:37:32.700Z,62.60
2017-11-18T15:39:58.953Z,62.50
2017-11-18T15:42:25.297Z,62.40
2017-11-18T15:48:02.737Z,63.00
2017-11-18T15:50:35.081Z,63.00
2017-11-18T15:53:16.183Z,62.60
2017-11-18T15:55:58.094Z,63.20
2017-11-18T15:58:24.292Z,62.90
2017-11-18T16:00:56.556Z,62.90
2017-11-18T16:03:23.724Z,63.00
2017-11-18T16:05:50.010Z,62.40
2017-11-18T16:08:18.982Z,62.80
2017-11-18T16:10:45.178Z,62.80
2017-11-18T16:13:11.345Z,62.20
2017-11-18T16:15:37.613Z,62.80
2017-11-18T16:18:03.816Z,63.20
2017-11-18T16:20:30.782Z,62.90
2017-11-18T16:22:57.769Z,63.00
2017-11-18T16:25:23.968Z,63.10
2017-11-18T16:27:50.206Z,62.90
2017-11-18T16:30:16.454Z,62.20
2017-11-18T16:32:42.642Z,62.10
2017-11-18T16:35:09.565Z,61.50
2017-11-18T16:37:36.735Z,61.90
2017-11-18T16:40:03.754Z,62.20
2017-11-18T16:42:29.939Z,62.30
2017-11-18T16:44:56.119Z,62.50
2017-11-18T16:47:22.373Z,61.80
2017-11-18T16:49:48.575Z,62.30
2017-11-18T16:52:14.744Z,60.70
2017-11-18T16:54:40.999Z,60.80
2017-11-18T16:57:07.190Z,60.60
2017-11-18T16:59:33.418Z,60.70
2017-11-18T17:01:59.603Z,60.20
2017-11-18T17:04:25.841Z,60.90
2017-11-18T17:06:52.067Z,61.20
2017-11-18T17:09:18.347Z,62.70
2017-11-18T17:11:44.626Z,66.80
2017-11-18T17:14:11.571Z,61.40
2017-11-18T17:16:38.511Z,61.70
2017-11-18T17:19:05.510Z,61.90
2017-11-18T17:21:31.733Z,62.00
2017-11-18T17:23:57.934Z,61.60
2017-11-18T17:26:24.879Z,60.60
2017-11-18T17:28:51.848Z,60.90
2017-11-18T17:31:18.062Z,60.90
2017-11-18T17:33:45.090Z,60.00
2017-11-18T17:36:12.062Z,59.70
2017-11-18T17:38:38.283Z,59.70
2017-11-18T17:41:05.179Z,60.30
2017-11-18T17:43:31.430Z,60.30
2017-11-18T17:45:57.559Z,59.30
2017-11-18T17:48:24.458Z,59.30
2017-11-18T17:50:50.668Z,59.30
2017-11-18T17:53:16.877Z,59.10
2017-11-18T17:55:43.864Z,59.00
2017-11-18T17:58:10.153Z,59.00
2017-11-18T18:00:36.351Z,58.90
2017-11-18T18:03:03.373Z,61.80
2017-11-18T18:05:29.579Z,61.90
2017-11-18T18:07:55.813Z,61.30
2017-11-18T18:10:22.039Z,62.00
2017-11-18T18:12:48.235Z,61.10
2017-11-18T18:15:15.236Z,61.90
2017-11-18T18:17:41.435Z,61.90
2017-11-18T18:20:07.655Z,62.20
2017-11-18T18:22:33.846Z,61.90
2017-11-18T18:25:00.828Z,61.40
2017-11-18T18:27:27.027Z,61.30
2017-11-18T18:29:53.966Z,62.10
2017-11-18T18:32:21.037Z,63.60
2017-11-18T18:34:47.259Z,63.60
2017-11-18T18:37:14.249Z,63.70
2017-11-18T18:39:40.489Z,63.60
2017-11-18T18:42:06.661Z,63.70
2017-11-18T18:44:33.616Z,62.10
2017-11-18T18:46:59.879Z,62.20
2017-11-18T18:49:26.071Z,62.80
2017-11-18T18:51:52.246Z,62.30
2017-11-18T18:54:18.463Z,63.40
2017-11-18T18:56:44.660Z,62.90
2017-11-18T18:59:10.826Z,62.40
2017-11-18T19:01:37.037Z,62.70
2017-11-18T19:04:03.286Z,64.00
2017-11-18T19:06:29.522Z,63.90
2017-11-18T19:08:56.470Z,62.50
2017-11-18T19:11:22.706Z,62.50
2017-11-18T19:13:48.920Z,62.90
2017-11-18T19:16:33.184Z,62.80
2017-11-18T19:18:59.325Z,62.00
2017-11-18T19:21:25.565Z,63.40
2017-11-18T19:23:52.563Z,62.70
2017-11-18T19:26:23.471Z,62.80
2017-11-18T19:28:50.967Z,63.70
2017-11-18T19:31:22.204Z,63.60
2017-11-18T19:33:53.133Z,64.00
2017-11-18T19:36:24.006Z,62.60
2017-11-18T19:38:55.146Z,63.40
2017-11-18T19:41:27.695Z,63.50
2017-11-18T19:44:02.368Z,63.20
2017-11-18T19:46:34.763Z,63.80
2017-11-18T19:49:29.116Z,64.60
2017-11-18T19:52:07.983Z,64.60
2017-11-18T19:54:38.697Z,64.60
2017-11-18T19:57:09.723Z,64.70
2017-11-18T19:59:41.496Z,64.70
2017-11-18T20:02:10.087Z,64.70
2017-11-18T20:04:40.571Z,62.80
2017-11-18T20:07:09.628Z,64.00
2017-11-18T20:09:42.514Z,62.90
2017-11-18T20:12:09.153Z,69.60
2017-11-18T20:14:41.266Z,65.20
2017-11-18T20:17:13.024Z,64.90
2017-11-18T20:19:44.648Z,63.60
2017-11-18T20:22:11.586Z,64.00
2017-11-18T20:24:41.516Z,65.10
2017-11-18T20:29:45.105Z,64.70
2017-11-18T20:32:14.648Z,65.60
2017-11-18T20:34:43.509Z,63.70
2017-11-18T20:37:14.610Z,63.70
2017-11-18T20:39:42.739Z,64.20
2017-11-18T20:42:11.193Z,64.20
2017-11-18T20:44:42.209Z,64.40
2017-11-18T20:47:10.802Z,65.30
2017-11-18T20:49:41.845Z,63.80
2017-11-18T20:52:08.395Z,63.80
2017-11-18T20:54:36.230Z,63.20
2017-11-18T20:57:08.933Z,65.00
2017-11-18T20:59:46.160Z,64.90
2017-11-18T21:02:16.316Z,64.90
2017-11-18T21:04:47.220Z,65.20
2017-11-18T21:07:17.765Z,66.10
2017-11-18T21:09:47.843Z,65.00
2017-11-18T21:12:17.554Z,65.00
2017-11-18T21:14:52.480Z,64.50
2017-11-18T21:17:24.746Z,65.60
2017-11-18T21:19:57.029Z,65.60
2017-11-18T21:22:30.227Z,66.60
2017-11-18T21:25:00.135Z,66.60
2017-11-18T21:27:29.126Z,66.90
2017-11-18T21:30:03.243Z,66.00
2017-11-18T21:32:36.387Z,65.70
2017-11-18T21:35:06.841Z,65.70
2017-11-18T21:37:47.017Z,65.70
2017-11-18T21:40:18.035Z,65.30
2017-11-18T21:42:48.892Z,65.90
2017-11-18T21:45:18.353Z,66.30
2017-11-18T21:47:46.959Z,66.70
2017-11-18T21:50:14.823Z,65.90
2017-11-18T21:52:42.648Z,65.70
2017-11-18T21:55:11.447Z,66.20
2017-11-18T21:57:41.209Z,66.30
2017-11-18T22:00:12.353Z,65.60
2017-11-18T22:02:43.869Z,65.30
2017-11-18T22:05:13.383Z,65.30
2017-11-18T22:07:42.823Z,67.20
2017-11-18T22:10:17.546Z,66.10
2017-11-18T22:12:46.266Z,66.10
2017-11-18T22:15:21.492Z,66.60
2017-11-18T22:20:29.355Z,66.80
2017-11-18T22:22:58.673Z,67.30
2017-11-18T22:25:33.538Z,66.30
2017-11-18T22:28:02.502Z,66.30
2017-11-18T22:30:32.452Z,68.20
2017-11-18T22:33:05.065Z,68.00
2017-11-18T22:35:32.627Z,67.60
2017-11-18T22:38:06.021Z,67.00
2017-11-18T22:40:37.209Z,68.10
2017-11-18T22:43:07.465Z,68.10
2017-11-18T22:45:37.867Z,67.50
2017-11-18T22:48:06.104Z,68.70
2017-11-18T22:50:34.161Z,68.60
2017-11-18T22:53:01.109Z,67.10
2017-11-18T22:55:27.275Z,67.10
2017-11-18T22:57:53.409Z,68.80
2017-11-18T23:00:38.462Z,68.90
2017-11-18T23:03:04.657Z,68.10
2017-11-18T23:05:30.894Z,68.60
2017-11-18T23:07:57.804Z,67.90
2017-11-18T23:10:23.982Z,67.90
2017-11-18T23:12:50.165Z,67.30
2017-11-18T23:15:16.330Z,68.10
2017-11-18T23:17:43.282Z,68.00
2017-11-18T23:20:09.478Z,68.00
2017-11-18T23:22:35.686Z,68.20
2017-11-18T23:25:01.882Z,66.70
2017-11-18T23:27:28.101Z,67.50
2017-11-18T23:29:54.311Z,68.30
2017-11-18T23:32:21.264Z,67.90
2017-11-18T23:34:47.496Z,67.90
2017-11-18T23:37:13.709Z,67.70
2017-11-18T23:39:40.673Z,67.30
2017-11-18T23:42:06.865Z,67.30
2017-11-18T23:44:33.760Z,68.00
2017-11-18T23:49:53.136Z,67.30
2017-11-18T23:52:19.311Z,66.60
2017-11-18T23:54:45.563Z,66.60
2017-11-18T23:57:11.754Z,68.80
2017-11-18T23:59:38.733Z,66.20
